KNBG/NBG METAR and TAF weather

Enter ICAO airport designator
Station Type Date Time Source
KNBG METAR 2019/04/18 13:55 UTC NOAA

KNBG 181355Z 16016G20KT 7SM SCT020 BKN150 BKN250 24/21 A2982 RMK AO2 SLP098 T02390211 $


Station Type Date Time Source
KNBG Decoded METAR 2019/04/18 13:55 UTC NOAA

NEW ORLEANS NAVAL AIR STN, LA, United States (KNBG) 29-50N 90-01W
Apr 18, 2019 - 09:55 AM EDT / 2019.04.18 1355 UTC
Wind: from the SSE (160 degrees) at 18 MPH (16 KT) gusting to 23 MPH (20 KT):0
Visibility: 7 mile(s):0
Sky conditions: mostly cloudy
Temperature: 75.0 F (23.9 C)
Dew Point: 70.0 F (21.1 C)
Relative Humidity: 84%
Pressure (altimeter): 29.82 in. Hg (1009 hPa)
ob: KNBG 181355Z 16016G20KT 7SM SCT020 BKN150 BKN250 24/21 A2982 RMK AO2 SLP098 T02390211
cycle: 14

Station Type Date Time Source
KNBG TAF 2019/04/18 09:07 UTC NOAA

TAF
AMD KNBG 1809/1907 14011KT 9999 BKN015 BKN250 QNH2967INS
BECMG 1816/1818 16013KT 4800 SHRA BR VCTS BKN012CB OVC030 QNH2960INS
TEMPO 1819/1823 VRB30G40KT 1200 +TSRAGR BR OVC008CB
FM190000 16010KT 9999 BKN020 BKN120 QNH2965INS AUTOMATED SENSOR METWATCH 1807 TIL 1810 T17/1812Z T23/1900Z
AMD 0904 FN00210

Example: see airport list